createdAt,value
2023-02-04T09:26:29.686Z,8.00
2023-02-04T09:28:56.506Z,8.10
2023-02-04T09:31:23.468Z,8.20
2023-02-04T09:33:50.442Z,8.30
2023-02-04T09:36:17.545Z,8.30
2023-02-04T09:38:44.425Z,8.40
2023-02-04T09:41:12.961Z,8.40
2023-02-04T09:43:44.173Z,8.50
2023-02-04T09:46:23.214Z,8.50
2023-02-04T09:48:51.003Z,8.60
2023-02-04T09:51:25.665Z,8.60
2023-02-04T09:53:54.246Z,8.70
2023-02-04T09:56:21.135Z,8.80
2023-02-04T09:58:48.009Z,8.90
2023-02-04T10:01:20.270Z,8.90
2023-02-04T10:03:50.264Z,8.90
2023-02-04T10:06:23.516Z,8.90
2023-02-04T10:08:51.593Z,9.00
2023-02-04T10:11:20.706Z,9.00
2023-02-04T10:13:53.831Z,9.10
2023-02-04T10:16:29.863Z,9.20
2023-02-04T10:19:05.175Z,9.30
2023-02-04T10:21:40.410Z,9.40
2023-02-04T10:24:22.626Z,9.50
2023-02-04T10:26:49.589Z,9.60
2023-02-04T10:29:23.926Z,9.60
2023-02-04T10:31:52.202Z,9.60
2023-02-04T10:34:24.451Z,9.70
2023-02-04T10:36:53.960Z,9.70
2023-02-04T10:39:23.582Z,9.70
2023-02-04T10:41:51.481Z,9.70
2023-02-04T10:44:21.313Z,9.70
2023-02-04T10:46:48.501Z,9.80
2023-02-04T10:49:22.010Z,9.90
2023-02-04T10:51:50.790Z,9.90
2023-02-04T10:54:30.582Z,10.00
2023-02-04T10:57:28.975Z,10.00
2023-02-04T11:00:01.482Z,10.10
2023-02-04T11:02:42.868Z,10.20
2023-02-04T11:05:18.867Z,10.30
2023-02-04T11:07:47.450Z,10.40
2023-02-04T11:10:17.060Z,10.50
2023-02-04T11:12:53.076Z,10.50
2023-02-04T11:15:38.726Z,10.60
2023-02-04T11:18:08.286Z,10.80
2023-02-04T11:20:39.775Z,10.90
2023-02-04T11:23:16.687Z,10.90
2023-02-04T11:25:43.553Z,10.90
2023-02-04T11:28:25.390Z,10.90
2023-02-04T11:31:03.890Z,10.90
2023-02-04T11:33:42.668Z,10.90
2023-02-04T11:36:13.556Z,11.00
2023-02-04T11:38:46.507Z,11.10
2023-02-04T11:41:33.701Z,11.10
2023-02-04T11:44:03.681Z,11.20
2023-02-04T11:46:30.738Z,11.30
2023-02-04T11:48:58.913Z,11.30
2023-02-04T11:51:32.533Z,11.30
2023-02-04T11:53:59.658Z,11.30
2023-02-04T11:56:30.150Z,11.40
2023-02-04T11:58:58.670Z,11.40
2023-02-04T12:01:32.032Z,11.50
2023-02-04T12:04:04.722Z,11.60
2023-02-04T12:06:33.713Z,11.60
2023-02-04T12:09:16.476Z,11.60
2023-02-04T12:12:03.966Z,11.70
2023-02-04T12:14:36.831Z,11.80
2023-02-04T12:17:20.027Z,11.80
2023-02-04T12:19:46.845Z,11.80
2023-02-04T12:22:15.659Z,12.00
2023-02-04T12:24:44.041Z,12.10
2023-02-04T12:27:10.987Z,12.10
2023-02-04T12:29:37.769Z,12.20
2023-02-04T12:32:04.875Z,12.20
2023-02-04T12:34:31.755Z,12.30
2023-02-04T12:37:01.599Z,12.30
2023-02-04T12:39:28.719Z,12.40
2023-02-04T12:41:55.622Z,12.50
2023-02-04T12:44:22.446Z,12.50
2023-02-04T12:46:49.390Z,12.60
2023-02-04T12:49:16.306Z,12.70
2023-02-04T12:51:43.194Z,12.70
2023-02-04T12:54:10.046Z,12.70
2023-02-04T12:56:36.929Z,12.80
2023-02-04T12:59:03.821Z,12.80
2023-02-04T13:01:30.614Z,12.80
2023-02-04T13:03:58.205Z,12.90
2023-02-04T13:06:25.082Z,13.00
2023-02-04T13:08:51.961Z,13.00
2023-02-04T13:11:22.243Z,13.10
2023-02-04T13:13:49.061Z,13.20
2023-02-04T13:16:18.147Z,13.30
2023-02-04T13:18:45.090Z,13.30
2023-02-04T13:21:11.902Z,13.30
2023-02-04T13:23:38.785Z,13.40
2023-02-04T13:26:06.061Z,13.40
2023-02-04T13:28:32.867Z,13.50
2023-02-04T13:30:59.745Z,13.50
2023-02-04T13:33:26.932Z,13.60
2023-02-04T13:35:53.706Z,13.60
2023-02-04T13:38:20.614Z,13.60
2023-02-04T13:40:47.468Z,13.70
2023-02-04T13:43:17.267Z,13.70
2023-02-04T13:45:49.096Z,13.80
2023-02-04T13:48:16.645Z,13.90
2023-02-04T13:50:43.559Z,14.00
2023-02-04T13:53:10.587Z,14.00
2023-02-04T13:55:37.462Z,14.00
2023-02-04T13:58:04.398Z,14.10
2023-02-04T14:00:32.916Z,14.20
2023-02-04T14:02:59.949Z,14.20
2023-02-04T14:05:26.809Z,14.20
2023-02-04T14:07:53.869Z,14.30
2023-02-04T14:10:23.054Z,14.30
2023-02-04T14:12:50.292Z,14.30
2023-02-04T14:15:17.693Z,14.40
2023-02-04T14:17:47.587Z,14.40
2023-02-04T14:20:14.433Z,14.40
2023-02-04T14:22:41.295Z,14.50
2023-02-04T14:25:10.234Z,14.50
2023-02-04T14:27:41.998Z,14.50
2023-02-04T14:30:29.736Z,14.50
2023-02-04T14:32:57.164Z,14.50
2023-02-04T14:35:24.464Z,14.50
2023-02-04T14:37:51.357Z,14.60
2023-02-04T14:40:19.707Z,14.50
2023-02-04T14:42:47.310Z,14.40
2023-02-04T14:45:15.548Z,14.50
2023-02-04T14:47:42.835Z,14.60
2023-02-04T14:50:14.294Z,14.50
2023-02-04T14:52:41.505Z,14.40
2023-02-04T14:55:11.072Z,14.40
2023-02-04T14:57:37.941Z,14.50
2023-02-04T15:00:06.881Z,14.50
2023-02-04T15:02:33.808Z,14.30
2023-02-04T15:05:03.762Z,14.10
2023-02-04T15:07:30.607Z,14.20
2023-02-04T15:09:57.501Z,14.00
2023-02-04T15:12:24.358Z,13.90
2023-02-04T15:14:51.201Z,13.90
2023-02-04T15:17:18.809Z,13.90
2023-02-04T15:19:46.019Z,13.80
2023-02-04T15:22:12.893Z,13.70
2023-02-04T15:24:39.892Z,13.60
2023-02-04T15:27:07.011Z,13.60
2023-02-04T15:29:33.989Z,13.50
2023-02-04T15:32:00.854Z,13.60
2023-02-04T15:34:27.817Z,13.50
2023-02-04T15:36:55.038Z,13.30
2023-02-04T15:39:21.903Z,13.30
2023-02-04T15:41:48.757Z,13.20
2023-02-04T15:44:15.635Z,13.20
2023-02-04T15:46:42.525Z,13.10
2023-02-04T15:49:12.238Z,13.10
2023-02-04T15:51:39.047Z,13.00
2023-02-04T15:54:06.008Z,12.90
2023-02-04T15:56:32.890Z,12.90
2023-02-04T15:59:02.172Z,12.90
2023-02-04T16:01:29.275Z,12.80
2023-02-04T16:03:56.903Z,12.80
2023-02-04T16:06:27.163Z,12.80
2023-02-04T16:08:54.030Z,12.80
2023-02-04T16:11:20.874Z,12.70
2023-02-04T16:13:47.654Z,12.70
2023-02-04T16:16:17.352Z,12.70
2023-02-04T16:18:44.287Z,12.60
2023-02-04T16:21:11.203Z,12.60
2023-02-04T16:23:41.359Z,12.60
2023-02-04T16:26:09.034Z,12.50
2023-02-04T16:28:35.902Z,12.50
2023-02-04T16:31:02.981Z,12.50
2023-02-04T16:33:29.911Z,12.50
2023-02-04T16:36:02.474Z,12.40
2023-02-04T16:38:29.970Z,12.40
2023-02-04T16:40:57.618Z,12.40
2023-02-04T16:43:24.571Z,12.30
2023-02-04T16:45:51.722Z,12.30
2023-02-04T16:48:18.621Z,12.30
2023-02-04T16:50:45.418Z,12.30
2023-02-04T16:53:16.057Z,12.30
2023-02-04T16:55:44.272Z,12.20
2023-02-04T16:58:12.358Z,12.20
2023-02-04T17:00:42.110Z,12.20
2023-02-04T17:03:10.476Z,12.20
2023-02-04T17:05:38.520Z,12.30
2023-02-04T17:08:06.064Z,12.40
2023-02-04T17:10:51.886Z,12.30
2023-02-04T17:13:19.212Z,12.30
2023-02-04T17:15:46.144Z,12.30
2023-02-04T17:18:13.150Z,12.30
2023-02-04T17:20:39.955Z,12.30
2023-02-04T17:23:06.815Z,12.30
2023-02-04T17:25:34.050Z,12.30
2023-02-04T17:28:01.187Z,12.30
2023-02-04T17:30:29.271Z,12.30
2023-02-04T17:32:56.170Z,12.30
2023-02-04T17:35:22.978Z,12.30
2023-02-04T17:37:49.934Z,12.30
2023-02-04T17:40:19.756Z,12.30
2023-02-04T17:42:46.586Z,12.30
2023-02-04T17:45:13.862Z,12.30
2023-02-04T17:47:41.180Z,12.30
2023-02-04T17:50:10.221Z,12.30
2023-02-04T17:52:37.925Z,12.30
2023-02-04T17:55:25.388Z,12.30
2023-02-04T17:57:52.279Z,12.40
2023-02-04T18:00:21.722Z,12.40
2023-02-04T18:02:51.376Z,12.40
2023-02-04T18:05:27.697Z,12.30
2023-02-04T18:08:11.314Z,12.40
2023-02-04T18:10:41.394Z,12.40
2023-02-04T18:13:31.791Z,12.40
2023-02-04T18:16:10.131Z,12.40
2023-02-04T18:18:40.036Z,12.40
2023-02-04T18:21:25.280Z,12.40
2023-02-04T18:24:19.337Z,12.40
2023-02-04T18:26:52.164Z,12.50
2023-02-04T18:29:31.081Z,12.50
2023-02-04T18:32:02.555Z,12.50
2023-02-04T18:34:38.370Z,12.50
2023-02-04T18:37:26.412Z,12.50
2023-02-04T18:40:16.397Z,12.50
2023-02-04T18:42:44.988Z,12.50
2023-02-04T18:45:25.396Z,12.50
2023-02-04T18:47:57.309Z,12.50
2023-02-04T18:50:30.038Z,12.40
2023-02-04T18:53:06.286Z,12.50
2023-02-04T18:55:37.423Z,12.50
2023-02-04T18:58:42.732Z,12.50
2023-02-04T19:01:12.964Z,12.50
2023-02-04T19:03:59.421Z,12.50
2023-02-04T19:06:38.142Z,12.50
2023-02-04T19:09:14.586Z,12.50
2023-02-04T19:11:51.514Z,12.60
2023-02-04T19:14:21.110Z,12.60
2023-02-04T19:16:52.587Z,12.60
2023-02-04T19:19:36.818Z,12.70
2023-02-04T19:22:37.673Z,12.60
2023-02-04T19:25:24.439Z,12.80
2023-02-04T19:27:54.562Z,12.80
2023-02-04T19:30:27.695Z,12.80
2023-02-04T19:33:10.230Z,12.90
2023-02-04T19:35:41.234Z,12.90
2023-02-04T19:38:43.135Z,12.80
2023-02-04T19:41:33.757Z,12.80
2023-02-04T19:44:12.565Z,12.70
2023-02-04T19:46:41.010Z,12.60
2023-02-04T19:49:13.819Z,12.70
2023-02-04T19:51:40.947Z,12.80
2023-02-04T19:54:39.918Z,12.70
2023-02-04T19:57:28.374Z,12.60
2023-02-04T19:59:56.691Z,12.60
2023-02-04T20:02:38.355Z,12.50
2023-02-04T20:05:19.641Z,12.60
2023-02-04T20:07:46.597Z,12.70
2023-02-04T20:10:29.438Z,12.70
2023-02-04T20:12:59.066Z,12.60
2023-02-04T20:15:26.244Z,12.60
2023-02-04T20:17:53.702Z,12.70
2023-02-04T20:20:29.953Z,12.70
2023-02-04T20:23:16.355Z,12.70
2023-02-04T20:25:48.429Z,12.70
2023-02-04T20:28:21.882Z,12.80
2023-02-04T20:30:50.519Z,12.80
2023-02-04T20:33:25.914Z,12.70
2023-02-04T20:35:52.720Z,12.70
2023-02-04T20:38:20.455Z,12.50
2023-02-04T20:40:47.551Z,12.50
2023-02-04T20:43:34.821Z,12.30
2023-02-04T20:46:07.235Z,12.20
2023-02-04T20:48:37.075Z,12.20
2023-02-04T20:51:07.866Z,12.20
2023-02-04T20:53:53.626Z,12.10
2023-02-04T20:56:35.518Z,11.90
2023-02-04T20:59:14.299Z,11.80
2023-02-04T21:01:44.246Z,11.60
2023-02-04T21:04:24.252Z,11.70
2023-02-04T21:06:53.331Z,11.80
2023-02-04T21:09:29.428Z,11.70
2023-02-04T21:11:57.406Z,11.50
2023-02-04T21:14:26.198Z,11.40
2023-02-04T21:16:54.818Z,11.60
2023-02-04T21:19:24.258Z,11.70
2023-02-04T21:21:51.717Z,11.80
2023-02-04T21:24:18.665Z,11.90
2023-02-04T21:26:45.618Z,11.90
2023-02-04T21:29:12.701Z,11.90
2023-02-04T21:31:39.991Z,11.80
2023-02-04T21:34:07.297Z,11.80
2023-02-04T21:36:34.375Z,11.80
2023-02-04T21:39:01.430Z,11.80
2023-02-04T21:41:31.389Z,11.80
2023-02-04T21:43:58.320Z,11.70
2023-02-04T21:46:25.213Z,11.60
2023-02-04T21:48:53.201Z,11.60
2023-02-04T21:51:20.071Z,11.70
2023-02-04T21:53:46.991Z,11.70
2023-02-04T21:56:14.472Z,11.60
2023-02-04T21:58:41.348Z,11.60
2023-02-04T22:01:09.017Z,11.70
2023-02-04T22:03:35.917Z,11.70
2023-02-04T22:06:02.812Z,11.70
2023-02-04T22:08:29.581Z,11.20
2023-02-04T22:10:56.895Z,10.80
2023-02-04T22:13:26.359Z,10.90
